createdAt,value
2023-05-02T00:00:41.384Z,15.10
2023-05-02T00:01:41.394Z,15.15
2023-05-02T00:02:41.498Z,15.17
2023-05-02T00:03:41.455Z,15.14
2023-05-02T00:04:41.361Z,15.18
2023-05-02T00:05:41.326Z,15.17
2023-05-02T00:06:41.362Z,15.17
2023-05-02T00:07:41.500Z,15.15
2023-05-02T00:08:41.527Z,15.13
2023-05-02T00:09:41.414Z,15.15
2023-05-02T00:10:41.279Z,15.15
2023-05-02T00:11:41.292Z,15.17
2023-05-02T00:12:41.251Z,15.26
2023-05-02T00:13:41.293Z,15.25
2023-05-02T00:14:41.680Z,15.34
2023-05-02T00:15:41.226Z,15.32
2023-05-02T00:16:41.353Z,15.35
2023-05-02T00:17:41.297Z,15.44
2023-05-02T00:18:41.151Z,15.46
2023-05-02T00:19:41.202Z,15.48
2023-05-02T00:20:41.494Z,15.60
2023-05-02T00:21:41.190Z,15.58
2023-05-02T00:22:41.118Z,15.56
2023-05-02T00:23:41.195Z,15.64
2023-05-02T00:24:41.097Z,15.62
2023-05-02T00:25:41.083Z,15.58
2023-05-02T00:26:41.733Z,15.54
2023-05-02T00:27:41.263Z,15.50
2023-05-02T00:28:41.036Z,15.45
2023-05-02T00:29:41.843Z,15.41
2023-05-02T00:30:41.081Z,15.33
2023-05-02T00:31:41.081Z,15.27
2023-05-02T00:32:41.334Z,15.25
2023-05-02T00:33:41.027Z,15.22
2023-05-02T00:34:41.001Z,15.16
2023-05-02T00:35:41.288Z,15.11
2023-05-02T00:36:41.500Z,15.07
2023-05-02T00:37:40.958Z,14.99
2023-05-02T00:38:41.499Z,14.97
2023-05-02T00:39:41.044Z,14.85
2023-05-02T00:40:40.933Z,14.86
2023-05-02T00:41:41.516Z,14.81
2023-05-02T00:42:40.882Z,14.75
2023-05-02T00:43:40.892Z,14.77
2023-05-02T00:44:40.995Z,14.70
2023-05-02T00:45:40.906Z,14.71
2023-05-02T00:46:41.570Z,14.70
2023-05-02T00:47:40.904Z,14.74
2023-05-02T00:48:40.811Z,14.69
2023-05-02T00:49:40.828Z,14.61
2023-05-02T00:50:41.135Z,14.70
2023-05-02T00:51:40.812Z,14.60
2023-05-02T00:52:40.762Z,14.68
2023-05-02T00:53:40.781Z,14.60
2023-05-02T00:54:40.757Z,14.59
2023-05-02T00:55:40.767Z,14.61
2023-05-02T00:56:41.019Z,14.63
2023-05-02T00:57:40.910Z,14.63
2023-05-02T00:58:40.703Z,14.68
2023-05-02T00:59:40.807Z,14.66
2023-05-02T01:00:40.774Z,14.72
2023-05-02T01:01:40.734Z,14.68
2023-05-02T01:02:40.824Z,14.66
2023-05-02T01:03:41.028Z,14.66
2023-05-02T01:04:40.610Z,14.66
2023-05-02T01:05:40.902Z,14.65
2023-05-02T01:06:40.758Z,14.66
2023-05-02T01:07:40.926Z,14.66
2023-05-02T01:08:40.925Z,14.63
2023-05-02T01:09:40.602Z,14.63
2023-05-02T01:10:40.697Z,14.68
2023-05-02T01:11:40.766Z,14.62
2023-05-02T01:12:41.102Z,14.62
2023-05-02T01:13:40.540Z,14.58
2023-05-02T01:14:40.625Z,14.60
2023-05-02T01:15:40.527Z,14.59
2023-05-02T01:16:40.625Z,14.53
2023-05-02T01:17:40.570Z,14.51
2023-05-02T01:18:40.478Z,14.46
2023-05-02T01:19:40.615Z,14.47
2023-05-02T01:20:40.435Z,14.46
2023-05-02T01:21:40.461Z,14.45
2023-05-02T01:22:40.810Z,14.42
2023-05-02T01:23:40.682Z,14.39
2023-05-02T01:24:40.382Z,14.39
2023-05-02T01:25:40.613Z,14.35
2023-05-02T01:26:40.357Z,14.34
2023-05-02T01:27:40.611Z,14.27
2023-05-02T01:28:40.539Z,14.29
2023-05-02T01:29:40.355Z,14.25
2023-05-02T01:30:40.316Z,14.21
2023-05-02T01:31:40.382Z,14.16
2023-05-02T01:32:40.445Z,14.11
2023-05-02T01:33:40.551Z,14.09
2023-05-02T01:34:40.418Z,14.05
2023-05-02T01:35:40.551Z,14.03
2023-05-02T01:36:40.248Z,13.96
2023-05-02T01:37:40.254Z,13.90
2023-05-02T01:38:40.233Z,13.98
2023-05-02T01:39:40.261Z,13.93
2023-05-02T01:40:40.303Z,13.89
2023-05-02T01:41:40.571Z,13.86
2023-05-02T01:42:40.849Z,13.84
2023-05-02T01:43:40.561Z,13.81
2023-05-02T01:44:40.191Z,13.84
2023-05-02T01:45:40.184Z,13.76
2023-05-02T01:46:40.237Z,13.76
2023-05-02T01:47:40.327Z,13.78
2023-05-02T01:48:40.281Z,13.77
2023-05-02T01:49:40.121Z,13.75
2023-05-02T01:50:40.251Z,13.73
2023-05-02T01:51:40.691Z,13.74
2023-05-02T01:52:40.106Z,13.67
2023-05-02T01:53:40.132Z,13.64
2023-05-02T01:54:40.128Z,13.65
2023-05-02T01:55:40.036Z,13.69
2023-05-02T01:56:40.043Z,13.61
2023-05-02T01:57:40.026Z,13.65
2023-05-02T01:58:40.365Z,13.63
2023-05-02T01:59:40.048Z,13.64
2023-05-02T02:00:40.312Z,13.53
2023-05-02T02:01:40.209Z,13.61
2023-05-02T02:02:39.965Z,13.57
2023-05-02T02:03:39.993Z,13.55
2023-05-02T02:04:40.326Z,13.57
2023-05-02T02:05:39.961Z,13.55
2023-05-02T02:06:40.406Z,13.48
2023-05-02T02:07:39.894Z,13.48
2023-05-02T02:08:40.585Z,13.46
2023-05-02T02:09:40.580Z,13.50
2023-05-02T02:10:39.891Z,13.48
2023-05-02T02:11:39.839Z,13.47
2023-05-02T02:12:39.867Z,13.45
2023-05-02T02:13:39.829Z,13.44
2023-05-02T02:14:39.863Z,13.40
2023-05-02T02:15:39.834Z,13.41
2023-05-02T02:16:39.896Z,13.43
2023-05-02T02:17:39.864Z,13.46
2023-05-02T02:18:39.790Z,13.40
2023-05-02T02:19:39.792Z,13.40
2023-05-02T02:20:39.778Z,13.36
2023-05-02T02:21:39.912Z,13.39
2023-05-02T02:22:39.922Z,13.34
2023-05-02T02:23:39.725Z,13.40
2023-05-02T02:24:39.739Z,13.36
2023-05-02T02:25:39.706Z,13.32
2023-05-02T02:26:39.688Z,13.33
2023-05-02T02:27:39.726Z,13.34
2023-05-02T02:28:40.006Z,13.29
2023-05-02T02:29:39.993Z,13.31
2023-05-02T02:30:40.030Z,13.32
2023-05-02T02:31:39.617Z,13.33
2023-05-02T02:32:39.640Z,13.27
2023-05-02T02:33:39.592Z,13.27
2023-05-02T02:34:39.597Z,13.27
2023-05-02T02:35:39.592Z,13.24
2023-05-02T02:36:39.573Z,13.24
2023-05-02T02:37:39.573Z,13.24
2023-05-02T02:38:39.586Z,13.21
2023-05-02T02:39:39.533Z,13.23
2023-05-02T02:40:39.585Z,13.23
2023-05-02T02:41:39.496Z,13.22
2023-05-02T02:42:39.511Z,13.21
2023-05-02T02:43:39.792Z,13.18
2023-05-02T02:44:39.482Z,13.20
2023-05-02T02:45:39.454Z,13.20
2023-05-02T02:46:39.691Z,13.18
2023-05-02T02:47:39.461Z,13.16
2023-05-02T02:48:39.455Z,13.17
2023-05-02T02:49:39.617Z,13.15
2023-05-02T02:50:39.465Z,13.15
2023-05-02T02:51:39.422Z,13.15
2023-05-02T02:52:39.375Z,13.17
2023-05-02T02:53:39.375Z,13.14
2023-05-02T02:54:39.380Z,13.14
2023-05-02T02:55:39.364Z,13.13
2023-05-02T02:56:39.365Z,13.14
2023-05-02T02:57:39.310Z,13.13
2023-05-02T02:58:39.318Z,13.16
2023-05-02T02:59:39.328Z,13.18
2023-05-02T03:00:39.290Z,13.23
2023-05-02T03:01:39.358Z,13.29
2023-05-02T03:02:39.308Z,13.32
2023-05-02T03:03:39.308Z,13.46
2023-05-02T03:04:39.276Z,13.65
2023-05-02T03:05:39.220Z,13.79
2023-05-02T03:06:39.308Z,14.04
2023-05-02T03:07:39.200Z,14.32
2023-05-02T03:08:39.201Z,14.74
2023-05-02T03:09:39.185Z,15.25
2023-05-02T03:10:39.621Z,15.87
2023-05-02T03:11:39.167Z,16.51
2023-05-02T03:12:39.157Z,17.10
2023-05-02T03:13:39.168Z,17.78
2023-05-02T03:14:39.116Z,18.31
2023-05-02T03:15:39.165Z,18.95
2023-05-02T03:16:39.208Z,19.64
2023-05-02T03:17:39.153Z,20.36
2023-05-02T03:18:39.088Z,21.08
2023-05-02T03:19:39.177Z,22.24
2023-05-02T03:20:39.057Z,23.09
2023-05-02T03:21:39.064Z,24.19
2023-05-02T03:22:39.058Z,25.13
2023-05-02T03:23:39.007Z,26.36
2023-05-02T03:24:39.011Z,27.75
2023-05-02T03:25:39.034Z,28.82
2023-05-02T03:26:39.012Z,29.99
2023-05-02T03:27:38.993Z,30.98
2023-05-02T03:28:39.241Z,32.12
2023-05-02T03:29:39.494Z,33.08
2023-05-02T03:30:38.936Z,34.01
2023-05-02T03:31:39.240Z,34.80
2023-05-02T03:32:38.961Z,35.33
2023-05-02T03:33:38.894Z,36.11
2023-05-02T03:34:38.893Z,36.74
2023-05-02T03:35:38.870Z,37.63
2023-05-02T03:36:38.878Z,38.46
2023-05-02T03:37:38.846Z,38.92
2023-05-02T03:38:38.941Z,39.47
2023-05-02T03:39:38.949Z,39.99
2023-05-02T03:40:38.828Z,40.53
2023-05-02T03:41:38.840Z,41.09
2023-05-02T03:42:38.973Z,41.99
2023-05-02T03:43:39.004Z,42.71
2023-05-02T03:44:38.795Z,43.37
2023-05-02T03:45:38.794Z,43.96
2023-05-02T03:46:39.108Z,43.87
2023-05-02T03:47:39.095Z,43.87
2023-05-02T03:48:38.739Z,44.10
2023-05-02T03:49:38.739Z,44.47
2023-05-02T03:50:39.108Z,45.00
2023-05-02T03:51:38.686Z,45.34
2023-05-02T03:52:38.705Z,45.44
2023-05-02T03:53:38.682Z,45.73
2023-05-02T03:54:38.658Z,46.03
2023-05-02T03:55:38.664Z,46.13
2023-05-02T03:56:39.822Z,46.13
2023-05-02T03:57:38.610Z,46.23
2023-05-02T03:58:38.669Z,46.13
2023-05-02T03:59:38.660Z,46.18
2023-05-02T04:00:38.589Z,45.83
2023-05-02T04:01:38.601Z,46.34
2023-05-02T04:02:38.764Z,47.51
2023-05-02T04:03:38.674Z,48.39
2023-05-02T04:04:38.737Z,49.56
2023-05-02T04:05:38.650Z,50.72
2023-05-02T04:06:38.808Z,52.86
2023-05-02T04:07:38.623Z,54.90
2023-05-02T04:08:38.664Z,56.14
2023-05-02T04:09:38.486Z,57.69
2023-05-02T04:10:38.481Z,59.36
2023-05-02T04:11:38.697Z,61.75
2023-05-02T04:12:38.453Z,64.40
2023-05-02T04:13:38.476Z,66.28
2023-05-02T04:14:38.675Z,68.16
2023-05-02T04:15:38.668Z,69.29
2023-05-02T04:16:38.501Z,71.35
2023-05-02T04:17:38.421Z,72.77
2023-05-02T04:18:38.375Z,74.77
2023-05-02T04:19:38.669Z,75.85
2023-05-02T04:20:38.674Z,76.61
2023-05-02T04:21:38.372Z,78.25
2023-05-02T04:22:38.345Z,80.50
2023-05-02T04:23:38.694Z,82.15
2023-05-02T04:24:38.321Z,83.54
2023-05-02T04:25:38.288Z,83.79
2023-05-02T04:26:38.681Z,84.13
2023-05-02T04:27:38.690Z,84.46
2023-05-02T04:28:38.265Z,84.29
2023-05-02T04:29:38.402Z,84.21
2023-05-02T04:30:38.302Z,85.06
2023-05-02T04:31:38.734Z,86.20
2023-05-02T04:32:38.398Z,88.28
2023-05-02T04:33:38.195Z,89.40
2023-05-02T04:34:38.213Z,91.05
2023-05-02T04:35:38.697Z,92.15
2023-05-02T04:36:38.185Z,92.05
2023-05-02T04:37:38.192Z,91.75
2023-05-02T04:38:38.147Z,90.76
2023-05-02T04:39:38.125Z,90.85
2023-05-02T04:40:38.116Z,90.07
2023-05-02T04:41:38.099Z,89.21
2023-05-02T04:42:38.107Z,88.09
2023-05-02T04:43:38.693Z,87.45
2023-05-02T04:44:38.474Z,86.82
2023-05-02T04:45:38.037Z,87.36
2023-05-02T04:46:38.402Z,88.65
2023-05-02T04:47:38.451Z,91.25
2023-05-02T04:48:38.010Z,92.15
2023-05-02T04:49:37.992Z,93.48
2023-05-02T04:50:38.053Z,94.21
2023-05-02T04:51:38.108Z,93.79
2023-05-02T04:52:37.982Z,93.27
2023-05-02T04:53:37.983Z,92.45
2023-05-02T04:54:37.988Z,91.45
2023-05-02T04:55:37.920Z,90.76
2023-05-02T04:56:37.943Z,89.98
2023-05-02T04:57:37.959Z,89.50
2023-05-02T04:58:37.905Z,89.69
2023-05-02T04:59:38.028Z,89.98
2023-05-02T05:00:37.915Z,89.79
2023-05-02T05:01:38.152Z,89.69
2023-05-02T05:02:38.203Z,88.93
2023-05-02T05:03:38.296Z,88.46
2023-05-02T05:04:38.090Z,87.63
2023-05-02T05:05:37.852Z,86.46
2023-05-02T05:06:38.246Z,85.84
2023-05-02T05:07:37.795Z,86.11
2023-05-02T05:08:38.152Z,85.50
2023-05-02T05:09:37.773Z,83.38
2023-05-02T05:10:38.162Z,82.23
2023-05-02T05:11:37.749Z,81.36
2023-05-02T05:12:38.201Z,80.19
2023-05-02T05:13:37.724Z,79.74
2023-05-02T05:14:37.754Z,79.14
2023-05-02T05:15:37.682Z,78.47
2023-05-02T05:16:37.761Z,77.25
2023-05-02T05:17:38.285Z,75.85
2023-05-02T05:18:37.725Z,75.44
2023-05-02T05:19:37.724Z,74.18
2023-05-02T05:20:37.739Z,74.11
2023-05-02T05:21:38.314Z,73.34
2023-05-02T05:22:37.829Z,72.51
2023-05-02T05:23:37.729Z,71.83
2023-05-02T05:24:37.736Z,71.10
2023-05-02T05:25:37.726Z,70.45
2023-05-02T05:26:37.617Z,69.52
2023-05-02T05:27:37.764Z,69.06
2023-05-02T05:28:37.736Z,68.16
2023-05-02T05:29:37.550Z,67.78
2023-05-02T05:30:38.425Z,67.13
2023-05-02T05:31:37.870Z,67.02
2023-05-02T05:32:38.061Z,66.54
2023-05-02T05:33:38.358Z,66.92
2023-05-02T05:34:37.752Z,67.34
2023-05-02T05:35:37.734Z,67.78
2023-05-02T05:36:37.490Z,67.24
2023-05-02T05:37:37.470Z,66.54
2023-05-02T05:38:37.523Z,65.97
2023-05-02T05:39:37.436Z,65.10
2023-05-02T05:40:37.593Z,64.55
2023-05-02T05:41:37.609Z,65.30
2023-05-02T05:42:37.645Z,65.61
2023-05-02T05:43:38.395Z,66.02
2023-05-02T05:44:37.378Z,66.23
2023-05-02T05:45:37.348Z,66.28
2023-05-02T05:46:37.811Z,66.18
2023-05-02T05:47:37.769Z,66.23
2023-05-02T05:48:37.329Z,66.39
2023-05-02T05:49:38.792Z,66.60
2023-05-02T05:50:37.755Z,66.86
2023-05-02T05:51:37.740Z,66.70
2023-05-02T05:52:37.284Z,66.81
2023-05-02T05:53:37.246Z,67.45
2023-05-02T05:54:37.237Z,68.50
2023-05-02T05:55:37.545Z,69.52
2023-05-02T05:56:37.264Z,69.98
2023-05-02T05:57:37.202Z,70.45
2023-05-02T05:58:37.240Z,71.16
2023-05-02T05:59:37.493Z,71.96
2023-05-02T06:00:37.171Z,72.83
2023-05-02T06:01:37.144Z,73.53
2023-05-02T06:02:37.701Z,73.59
2023-05-02T06:03:37.383Z,73.98
2023-05-02T06:04:37.139Z,74.31
2023-05-02T06:05:37.193Z,75.17
2023-05-02T06:06:37.545Z,75.85
2023-05-02T06:07:37.790Z,76.68
2023-05-02T06:08:37.112Z,77.10
2023-05-02T06:09:37.197Z,77.67
2023-05-02T06:10:37.036Z,77.60
2023-05-02T06:11:37.763Z,77.53
2023-05-02T06:12:37.047Z,77.46
2023-05-02T06:13:37.022Z,76.96
2023-05-02T06:14:36.989Z,76.75
2023-05-02T06:15:37.034Z,76.96
2023-05-02T06:16:37.118Z,76.82
2023-05-02T06:17:37.075Z,76.75
2023-05-02T06:18:37.054Z,75.51
2023-05-02T06:19:36.950Z,75.04
2023-05-02T06:20:37.095Z,74.18
2023-05-02T06:21:37.105Z,72.58
2023-05-02T06:22:36.901Z,72.20
2023-05-02T06:23:36.917Z,70.80
2023-05-02T06:24:36.886Z,69.86
2023-05-02T06:25:36.891Z,69.34
2023-05-02T06:26:36.860Z,68.95
2023-05-02T06:27:37.056Z,69.34
2023-05-02T06:28:36.837Z,69.75
2023-05-02T06:29:36.845Z,69.40
2023-05-02T06:30:36.806Z,69.23
2023-05-02T06:31:36.896Z,67.94
2023-05-02T06:32:36.808Z,66.76
2023-05-02T06:33:36.785Z,65.66
2023-05-02T06:34:36.768Z,64.50
2023-05-02T06:35:36.777Z,63.43
2023-05-02T06:36:36.723Z,61.89
2023-05-02T06:37:36.746Z,61.39
2023-05-02T06:38:36.714Z,60.33
2023-05-02T06:39:36.781Z,59.52
2023-05-02T06:40:36.680Z,59.06
2023-05-02T06:41:36.703Z,57.96
2023-05-02T06:42:36.653Z,56.83
2023-05-02T06:43:36.657Z,55.08
2023-05-02T06:44:36.636Z,53.33
2023-05-02T06:45:36.630Z,51.50
2023-05-02T06:46:36.665Z,49.91
2023-05-02T06:47:36.800Z,48.56
2023-05-02T06:48:36.610Z,47.35
2023-05-02T06:49:36.591Z,46.28
2023-05-02T06:50:36.786Z,45.24
2023-05-02T06:51:36.583Z,44.95
2023-05-02T06:52:36.539Z,44.81
2023-05-02T06:53:36.545Z,45.24
2023-05-02T06:54:36.551Z,45.29
2023-05-02T06:55:36.535Z,45.53
2023-05-02T06:56:36.506Z,45.09
2023-05-02T06:57:36.796Z,44.81
2023-05-02T06:58:36.471Z,44.06
2023-05-02T06:59:36.478Z,43.20
2023-05-02T07:00:36.479Z,42.54
2023-05-02T07:01:36.928Z,41.62
2023-05-02T07:02:36.798Z,41.25
2023-05-02T07:03:36.454Z,40.65
2023-05-02T07:04:36.530Z,40.57
2023-05-02T07:05:36.815Z,40.69
2023-05-02T07:06:36.461Z,40.42
2023-05-02T07:07:36.807Z,40.49
2023-05-02T07:08:36.804Z,40.42
2023-05-02T07:09:36.433Z,40.15
2023-05-02T07:10:36.360Z,39.14
2023-05-02T07:11:36.338Z,38.42
2023-05-02T07:12:36.447Z,37.80
2023-05-02T07:13:36.500Z,37.04
2023-05-02T07:14:36.359Z,36.43
2023-05-02T07:15:36.283Z,35.33
2023-05-02T07:16:36.308Z,34.29
2023-05-02T07:17:36.351Z,33.37
2023-05-02T07:18:36.253Z,32.49
2023-05-02T07:19:36.241Z,31.42
2023-05-02T07:20:36.230Z,30.47
2023-05-02T07:21:36.242Z,29.65
2023-05-02T07:22:36.793Z,28.90
2023-05-02T07:23:36.696Z,28.29
2023-05-02T07:24:36.172Z,27.61
2023-05-02T07:25:36.166Z,27.14
2023-05-02T07:26:36.819Z,26.58
2023-05-02T07:27:36.828Z,26.25
2023-05-02T07:28:36.838Z,26.08
2023-05-02T07:29:36.820Z,26.05
2023-05-02T07:30:36.399Z,26.08
2023-05-02T07:31:36.883Z,26.65
2023-05-02T07:32:36.860Z,27.30
2023-05-02T07:33:36.301Z,28.62
2023-05-02T07:34:36.063Z,29.92
2023-05-02T07:35:36.071Z,31.21
2023-05-02T07:36:36.079Z,32.49
2023-05-02T07:37:36.122Z,33.47
2023-05-02T07:38:36.112Z,34.86
2023-05-02T07:39:36.125Z,36.02
2023-05-02T07:40:36.011Z,37.40
2023-05-02T07:41:36.248Z,38.42
2023-05-02T07:42:36.173Z,38.63
2023-05-02T07:43:35.978Z,39.47
2023-05-02T07:44:36.205Z,40.30
2023-05-02T07:45:36.240Z,41.70
2023-05-02T07:46:36.088Z,42.50
2023-05-02T07:47:36.352Z,43.96
2023-05-02T07:48:36.087Z,45.00
2023-05-02T07:49:36.200Z,46.49
2023-05-02T07:50:35.860Z,48.58
2023-05-02T07:51:36.309Z,51.12
2023-05-02T07:52:35.845Z,53.84
2023-05-02T07:53:35.876Z,56.26
2023-05-02T07:54:35.904Z,58.45
2023-05-02T07:55:35.817Z,61.80
2023-05-02T07:56:35.827Z,64.70
2023-05-02T07:57:35.846Z,67.56
2023-05-02T07:58:35.850Z,70.75
2023-05-02T07:59:35.800Z,72.83
2023-05-02T08:00:35.789Z,74.84
2023-05-02T08:01:35.852Z,77.32
2023-05-02T08:02:35.778Z,81.20
2023-05-02T08:03:36.059Z,85.24
2023-05-02T08:04:35.730Z,88.84
2023-05-02T08:05:35.737Z,92.15
2023-05-02T08:06:35.945Z,94.66
2023-05-02T08:07:37.079Z,97.58
2023-05-02T08:08:35.684Z,99.78
2023-05-02T08:09:35.869Z,101.71
2023-05-02T08:10:35.644Z,101.89
2023-05-02T08:11:35.635Z,103.02
2023-05-02T08:12:35.627Z,104.62
2023-05-02T08:13:35.604Z,106.14
2023-05-02T08:14:35.862Z,107.02
2023-05-02T08:15:35.619Z,108.75
2023-05-02T08:16:35.613Z,109.24
2023-05-02T08:17:35.607Z,108.82
2023-05-02T08:18:35.550Z,109.17
2023-05-02T08:19:35.565Z,109.24
2023-05-02T08:20:35.531Z,110.10
2023-05-02T08:21:35.542Z,111.19
2023-05-02T08:22:35.872Z,111.71
2023-05-02T08:23:35.507Z,111.27
2023-05-02T08:24:35.485Z,109.10
2023-05-02T08:25:35.527Z,107.22
2023-05-02T08:26:35.468Z,105.74
2023-05-02T08:27:35.571Z,105.34
2023-05-02T08:28:35.450Z,102.83
2023-05-02T08:29:35.452Z,100.79
2023-05-02T08:30:35.483Z,97.07
2023-05-02T08:31:35.462Z,94.43
2023-05-02T08:32:35.430Z,90.76
2023-05-02T08:33:35.388Z,87.36
2023-05-02T08:34:35.375Z,84.46
2023-05-02T08:35:35.377Z,81.44
2023-05-02T08:36:35.369Z,77.67
2023-05-02T08:37:35.367Z,73.59
2023-05-02T08:38:35.887Z,68.61
2023-05-02T08:39:35.318Z,64.85
2023-05-02T08:40:41.566Z,61.44
2023-05-02T08:41:36.316Z,58.78
2023-05-02T08:42:35.264Z,55.77
2023-05-02T08:43:35.274Z,53.47
2023-05-02T08:44:35.253Z,51.79
2023-05-02T08:45:35.269Z,50.33
2023-05-02T08:46:35.531Z,48.72
2023-05-02T08:47:35.313Z,47.01
2023-05-02T08:48:35.213Z,45.48
2023-05-02T08:49:35.212Z,44.06
2023-05-02T08:50:35.155Z,42.76
2023-05-02T08:51:35.230Z,41.17
2023-05-02T08:52:35.161Z,39.32
2023-05-02T08:53:35.154Z,37.87
2023-05-02T08:54:35.196Z,36.49
2023-05-02T08:55:35.173Z,35.50
2023-05-02T08:56:35.097Z,34.57
2023-05-02T08:57:35.257Z,33.96
2023-05-02T08:58:35.230Z,33.15
2023-05-02T08:59:35.258Z,32.44
2023-05-02T09:00:35.056Z,31.59
2023-05-02T09:01:35.094Z,30.49
2023-05-02T09:02:35.358Z,29.63
2023-05-02T09:03:35.338Z,29.12
2023-05-02T09:04:35.381Z,28.60
2023-05-02T09:05:35.016Z,28.16
2023-05-02T09:06:35.028Z,27.57
2023-05-02T09:07:35.023Z,26.92
2023-05-02T09:08:34.996Z,26.51
2023-05-02T09:09:34.949Z,26.13
2023-05-02T09:10:35.299Z,25.95
2023-05-02T09:11:34.948Z,26.07
2023-05-02T09:12:35.025Z,25.83
2023-05-02T09:13:34.949Z,25.67
2023-05-02T09:14:34.880Z,25.64
2023-05-02T09:15:34.920Z,25.92
2023-05-02T09:16:34.963Z,26.44
2023-05-02T09:17:34.906Z,27.04
2023-05-02T09:18:34.846Z,27.81
2023-05-02T09:19:34.872Z,28.88
2023-05-02T09:20:34.826Z,29.69
2023-05-02T09:21:34.859Z,30.09
2023-05-02T09:22:34.821Z,31.35
2023-05-02T09:23:34.832Z,32.54
2023-05-02T09:24:34.795Z,33.44
2023-05-02T09:25:34.795Z,34.18
2023-05-02T09:26:34.747Z,35.44
2023-05-02T09:27:34.760Z,36.49
2023-05-02T09:28:34.738Z,37.70
2023-05-02T09:29:34.754Z,38.88
2023-05-02T09:30:34.769Z,40.18
2023-05-02T09:32:34.746Z,41.86
2023-05-02T09:33:34.707Z,42.33
2023-05-02T09:34:34.686Z,42.89
2023-05-02T09:35:34.681Z,42.80
2023-05-02T09:36:34.640Z,42.20
2023-05-02T09:37:34.695Z,41.53
2023-05-02T09:38:34.635Z,41.21
2023-05-02T09:39:34.686Z,40.61
2023-05-02T09:40:34.578Z,40.97
2023-05-02T09:41:34.593Z,41.66
2023-05-02T09:42:34.648Z,42.46
2023-05-02T09:43:34.584Z,42.63
2023-05-02T09:44:34.602Z,42.58
2023-05-02T09:45:34.569Z,42.84
2023-05-02T09:46:34.601Z,42.63
2023-05-02T09:47:34.574Z,43.28
2023-05-02T09:48:34.505Z,44.01
2023-05-02T09:49:34.499Z,46.08
2023-05-02T09:50:35.190Z,47.76
2023-05-02T09:51:34.469Z,49.73
2023-05-02T09:52:34.477Z,51.91
2023-05-02T09:53:34.509Z,53.47
2023-05-02T09:54:34.463Z,55.40
2023-05-02T09:55:34.465Z,58.41
2023-05-02T09:56:34.416Z,63.43
2023-05-02T09:57:34.447Z,68.39
2023-05-02T09:58:34.959Z,72.96
2023-05-02T09:59:34.411Z,76.75
2023-05-02T10:00:34.371Z,80.89
2023-05-02T10:01:34.398Z,84.04
2023-05-02T10:02:34.459Z,86.82
2023-05-02T10:03:34.349Z,88.56
2023-05-02T10:04:34.537Z,90.07
2023-05-02T10:05:34.305Z,90.95
2023-05-02T10:06:34.987Z,92.66
2023-05-02T10:07:35.195Z,93.90
2023-05-02T10:08:34.472Z,94.40
2023-05-02T10:09:34.266Z,95.91
2023-05-02T10:10:34.230Z,96.90
2023-05-02T10:11:34.241Z,98.26
2023-05-02T10:12:34.206Z,99.13
2023-05-02T10:13:34.234Z,104.04
2023-05-02T10:14:34.292Z,107.50
2023-05-02T10:15:34.253Z,107.15
2023-05-02T10:16:34.214Z,106.27
2023-05-02T10:17:34.223Z,105.94
2023-05-02T10:18:34.161Z,106.54
2023-05-02T10:19:34.131Z,107.63
2023-05-02T10:20:34.147Z,109.39
2023-05-02T10:21:34.107Z,108.33
2023-05-02T10:22:34.124Z,108.68
2023-05-02T10:23:34.112Z,109.67
2023-05-02T10:24:34.096Z,109.46
2023-05-02T10:25:34.057Z,109.10
2023-05-02T10:26:34.461Z,107.98
2023-05-02T10:27:34.062Z,107.22
2023-05-02T10:28:34.072Z,106.00
2023-05-02T10:29:34.012Z,103.53
2023-05-02T10:30:34.050Z,105.87
2023-05-02T10:31:34.081Z,105.94
2023-05-02T10:32:34.032Z,106.68
2023-05-02T10:33:33.982Z,107.84
2023-05-02T10:34:34.015Z,109.89
2023-05-02T10:35:33.941Z,111.86
2023-05-02T10:36:33.956Z,113.67
2023-05-02T10:37:33.954Z,112.68
2023-05-02T10:38:33.974Z,114.45
2023-05-02T10:39:33.904Z,114.68
2023-05-02T10:40:33.916Z,116.43
2023-05-02T10:41:33.874Z,117.08
2023-05-02T10:42:33.875Z,116.35
2023-05-02T10:43:33.881Z,116.19
2023-05-02T10:44:33.861Z,116.83
2023-05-02T10:45:33.825Z,117.00
2023-05-02T10:46:33.894Z,117.40
2023-05-02T10:47:33.825Z,118.65
2023-05-02T10:48:33.809Z,123.53
2023-05-02T10:49:33.795Z,128.14
2023-05-02T10:50:33.777Z,133.43
2023-05-02T10:51:33.802Z,137.58
2023-05-02T10:52:33.764Z,141.04
2023-05-02T10:53:33.764Z,137.81
2023-05-02T10:54:33.762Z,135.15
2023-05-02T10:55:33.702Z,137.02
2023-05-02T10:56:33.995Z,140.81
2023-05-02T10:57:33.980Z,144.31
2023-05-02T10:58:33.675Z,148.91
2023-05-02T10:59:33.677Z,152.01
2023-05-02T11:00:33.919Z,154.10
2023-05-02T11:01:33.707Z,153.26
2023-05-02T11:02:33.690Z,153.96
2023-05-02T11:03:33.735Z,155.82
2023-05-02T11:04:33.606Z,154.24
2023-05-02T11:05:33.607Z,154.10
2023-05-02T11:06:33.744Z,153.82
2023-05-02T11:07:33.599Z,154.38
2023-05-02T11:08:33.569Z,152.70
2023-05-02T11:09:33.549Z,151.33
2023-05-02T11:10:33.570Z,153.12
2023-05-02T11:11:33.521Z,155.24
2023-05-02T11:12:33.997Z,156.54
2023-05-02T11:13:33.498Z,159.66
2023-05-02T11:14:33.506Z,162.60
2023-05-02T11:15:33.505Z,164.51
2023-05-02T11:16:33.553Z,166.96
2023-05-02T11:17:33.508Z,168.29
2023-05-02T11:18:33.445Z,170.51
2023-05-02T11:19:33.457Z,171.73
2023-05-02T11:20:33.999Z,173.50
2023-05-02T11:21:33.426Z,173.32
2023-05-02T11:22:33.405Z,173.15
2023-05-02T11:23:33.520Z,170.86
2023-05-02T11:24:33.409Z,169.65
2023-05-02T11:25:33.366Z,166.96
2023-05-02T11:26:33.373Z,164.67
2023-05-02T11:27:34.007Z,162.60
2023-05-02T11:28:34.017Z,161.35
2023-05-02T11:29:33.323Z,162.13
2023-05-02T11:30:33.318Z,162.44
2023-05-02T11:31:33.318Z,162.28
2023-05-02T11:32:33.403Z,162.60
2023-05-02T11:33:33.262Z,163.23
2023-05-02T11:34:33.283Z,166.46
2023-05-02T11:35:33.340Z,166.13
2023-05-02T11:36:33.710Z,165.80
2023-05-02T11:37:33.231Z,165.48
2023-05-02T11:38:33.231Z,165.64
2023-05-02T11:39:33.212Z,166.79
2023-05-02T11:40:33.232Z,171.56
2023-05-02T11:41:33.195Z,174.58
2023-05-02T11:42:33.214Z,176.42
2023-05-02T11:43:33.173Z,176.05
2023-05-02T11:44:33.171Z,175.68
2023-05-02T11:45:33.137Z,173.50
2023-05-02T11:46:33.282Z,174.58
2023-05-02T11:47:33.203Z,176.79
2023-05-02T11:48:33.314Z,185.16
2023-05-02T11:49:33.103Z,189.92
2023-05-02T11:50:33.096Z,192.80
2023-05-02T11:51:33.057Z,193.37
2023-05-02T11:52:33.060Z,198.24
2023-05-02T11:53:33.071Z,202.49
2023-05-02T11:54:33.037Z,202.99
2023-05-02T11:55:33.008Z,201.38
2023-05-02T11:56:33.014Z,201.50
2023-05-02T11:57:32.989Z,205.64
2023-05-02T11:58:33.085Z,210.48
2023-05-02T11:59:32.958Z,213.06
2023-05-02T12:00:32.967Z,212.10
2023-05-02T12:01:32.944Z,214.72
2023-05-02T12:02:32.992Z,216.55
2023-05-02T12:03:33.145Z,217.12
2023-05-02T12:04:32.922Z,224.19
2023-05-02T12:05:32.997Z,224.49
2023-05-02T12:06:32.960Z,226.02
2023-05-02T12:07:32.872Z,229.48
2023-05-02T12:08:32.902Z,230.28
2023-05-02T12:09:32.851Z,236.20
2023-05-02T12:10:32.867Z,239.45
2023-05-02T12:11:32.816Z,239.97
2023-05-02T12:12:32.812Z,238.41
2023-05-02T12:13:32.825Z,239.62
2023-05-02T12:14:32.812Z,240.32
2023-05-02T12:15:32.773Z,242.43
2023-05-02T12:16:32.884Z,249.38
2023-05-02T12:17:32.852Z,250.90
2023-05-02T12:18:32.785Z,253.40
2023-05-02T12:19:32.725Z,254.57
2023-05-02T12:20:32.744Z,252.43
2023-05-02T12:21:32.705Z,252.43
2023-05-02T12:22:32.745Z,250.52
2023-05-02T12:23:33.655Z,248.07
2023-05-02T12:24:32.688Z,249.38
2023-05-02T12:25:32.659Z,246.23
2023-05-02T12:26:32.712Z,248.45
2023-05-02T12:27:32.643Z,250.33
2023-05-02T12:28:32.647Z,252.82
2023-05-02T12:29:32.609Z,252.62
2023-05-02T12:30:32.639Z,252.24
2023-05-02T12:31:32.643Z,253.59
2023-05-02T12:32:32.630Z,254.96
2023-05-02T12:33:32.580Z,261.83
2023-05-02T12:34:32.573Z,264.77
2023-05-02T12:35:32.547Z,268.20
2023-05-02T12:36:32.550Z,271.28
2023-05-02T12:37:32.521Z,274.21
2023-05-02T12:38:32.524Z,274.67
2023-05-02T12:39:32.512Z,271.73
2023-05-02T12:40:32.509Z,269.30
2023-05-02T12:41:32.485Z,268.64
2023-05-02T12:42:32.471Z,269.08
2023-05-02T12:43:32.446Z,271.95
2023-05-02T12:44:32.468Z,267.55
2023-05-02T12:45:32.459Z,265.83
2023-05-02T12:46:32.856Z,265.19
2023-05-02T12:47:32.457Z,263.71